Time;durP1;ratioP1;P1;durP2;ratioP2;P2;SDS_P1;SDS_P2;PMS_P1;PMS_P2;Temp;Humidity;BMP_temperature;BMP_pressure;BME280_temperature;BME280_humidity;BME280_pressure;Samples;Min_cycle;Max_cycle;Signal;HPM_P1;HPM_P2
2023/11/24 00:02:31;;;;;;;1.80;1.40;;;;;;;8.76;65.54;97208.35;233810;213;138921;-56
2023/11/24 00:07:36;;;;;;;1.50;1.10;;;;;;;8.75;65.48;97185.06;233971;215;137403;-57
2023/11/24 00:12:39;;;;;;;1.60;1.00;;;;;;;8.81;65.37;97169.70;234441;207;148995;-56
2023/11/24 00:17:42;;;;;;;1.90;1.20;;;;;;;8.89;65.30;97159.80;234020;212;139758;-58
2023/11/24 00:22:45;;;;;;;1.80;1.00;;;;;;;8.99;65.66;97160.58;234329;213;137186;-56
2023/11/24 00:27:50;;;;;;;1.20;1.00;;;;;;;9.00;65.80;97167.20;234442;215;151593;-56
2023/11/24 00:32:54;;;;;;;2.30;1.00;;;;;;;9.02;65.84;97146.71;234376;215;139260;-55
2023/11/24 00:37:57;;;;;;;2.30;1.00;;;;;;;9.07;65.49;97148.23;234423;215;137824;-56
2023/11/24 00:43:01;;;;;;;1.30;0.80;;;;;;;9.07;65.40;97140.92;234472;215;151759;-55
2023/11/24 00:48:08;;;;;;;1.20;0.80;;;;;;;9.10;65.08;97147.79;234384;215;138794;-55
2023/11/24 00:53:11;;;;;;;2.30;0.70;;;;;;;9.12;64.93;97141.58;234314;215;138808;-55
2023/11/24 00:58:14;;;;;;;1.30;0.90;;;;;;;9.13;64.99;97134.36;234308;215;149459;-57
2023/11/24 01:03:17;;;;;;;0.90;0.80;;;;;;;9.17;65.11;97136.89;234273;213;138683;-55
2023/11/24 01:08:21;;;;;;;1.30;0.90;;;;;;;9.14;65.24;97122.08;234429;215;136855;-57
2023/11/24 01:13:24;;;;;;;1.10;0.70;;;;;;;9.17;65.59;97120.08;234395;213;150428;-55
2023/11/24 01:18:27;;;;;;;1.00;0.80;;;;;;;9.12;65.74;97135.92;234494;215;139406;-56
2023/11/24 01:23:31;;;;;;;0.80;0.70;;;;;;;9.04;66.76;97144.05;234329;212;136866;-55
2023/11/24 01:28:34;;;;;;;0.90;0.80;;;;;;;8.97;67.51;97145.55;234309;215;149460;-56
2023/11/24 01:33:38;;;;;;;1.20;0.80;;;;;;;8.98;68.10;97148.26;234276;215;138726;-56
2023/11/24 01:38:41;;;;;;;1.50;0.90;;;;;;;8.97;68.49;97152.39;234273;215;138165;-55
2023/11/24 01:44:00;;;;;;;1.30;0.80;;;;;;;8.87;69.38;97167.58;234403;215;149454;-56
2023/11/24 01:49:05;;;;;;;1.20;0.90;;;;;;;8.79;70.80;97187.73;234446;215;138700;-56
2023/11/24 01:54:09;;;;;;;1.00;0.80;;;;;;;8.68;71.63;97199.65;234375;215;137957;-55
2023/11/24 01:59:14;;;;;;;1.90;1.10;;;;;;;8.61;72.65;97204.79;234425;212;150458;-58
2023/11/24 02:04:17;;;;;;;1.30;1.20;;;;;;;8.57;72.59;97226.38;234256;215;138877;-56
2023/11/24 02:09:21;;;;;;;2.00;1.20;;;;;;;8.49;73.21;97253.36;234346;215;136882;-57
2023/11/24 02:14:24;;;;;;;1.30;1.20;;;;;;;8.28;73.83;97263.54;234308;215;149934;-55
2023/11/24 02:19:27;;;;;;;1.40;1.20;;;;;;;8.10;73.66;97251.56;234318;215;140967;-55
2023/11/24 02:24:30;;;;;;;1.30;0.70;;;;;;;8.01;72.99;97240.62;234545;215;138523;-55
2023/11/24 02:29:34;;;;;;;1.70;1.00;;;;;;;7.97;72.54;97235.67;234399;214;150236;-55
2023/11/24 02:34:38;;;;;;;0.60;0.50;;;;;;;7.90;72.55;97233.94;234226;216;139984;-56
2023/11/24 02:39:41;;;;;;;1.00;0.60;;;;;;;7.76;72.32;97236.64;234398;215;137785;-56
2023/11/24 02:44:44;;;;;;;0.40;0.40;;;;;;;7.61;72.61;97229.35;234346;215;149080;-54
2023/11/24 02:49:48;;;;;;;0.80;0.70;;;;;;;7.63;72.80;97216.30;234444;208;139027;-55
2023/11/24 02:54:52;;;;;;;1.10;0.90;;;;;;;7.67;72.81;97203.07;234494;215;138675;-57
2023/11/24 02:59:56;;;;;;;0.90;0.70;;;;;;;7.72;72.90;97181.36;234356;212;150114;-57
2023/11/24 03:05:00;;;;;;;0.80;0.60;;;;;;;7.75;72.67;97175.11;234231;212;139662;-56
2023/11/24 03:10:05;;;;;;;1.00;0.60;;;;;;;7.78;72.32;97169.70;234286;215;136682;-56
2023/11/24 03:15:11;;;;;;;1.50;0.60;;;;;;;7.71;71.94;97188.96;234386;215;149934;-55
2023/11/24 03:20:15;;;;;;;;;;;;;;;7.61;71.71;97196.52;234336;212;140182;-56
2023/11/24 03:25:18;;;;;;;0.60;0.50;;;;;;;7.56;71.62;97195.34;234638;213;134824;-55
2023/11/24 03:30:23;;;;;;;0.80;0.30;;;;;;;7.55;71.38;97168.75;234361;215;150562;-56
2023/11/24 03:35:27;;;;;;;1.30;0.30;;;;;;;7.57;70.88;97147.05;234417;215;140095;-54
2023/11/24 03:40:30;;;;;;;2.00;0.60;;;;;;;7.57;70.65;97155.49;234399;215;138180;-56
2023/11/24 03:45:33;;;;;;;3.00;0.40;;;;;;;7.49;70.25;97160.58;234411;215;149136;-55
2023/11/24 03:50:36;;;;;;;0.70;0.40;;;;;;;7.43;70.00;97162.66;234394;213;139612;-56
2023/11/24 03:55:39;;;;;;;0.40;0.30;;;;;;;7.41;69.86;97144.85;234415;214;137286;-56
2023/11/24 04:00:42;;;;;;;1.40;0.50;;;;;;;7.40;69.73;97132.76;234395;214;149803;-55
2023/11/24 04:05:47;;;;;;;1.50;0.50;;;;;;;7.43;69.64;97123.70;234532;214;140104;-56
2023/11/24 04:10:50;;;;;;;1.30;0.60;;;;;;;7.45;69.64;97137.83;234686;214;136896;-54
2023/11/24 04:15:53;;;;;;;1.40;0.70;;;;;;;7.40;69.80;97138.94;234664;214;149811;-54
2023/11/24 04:20:56;;;;;;;1.60;0.90;;;;;;;7.34;70.11;97141.27;234529;211;140433;-57
2023/11/24 04:26:00;;;;;;;2.90;0.60;;;;;;;7.35;70.29;97126.40;234678;214;138241;-56
2023/11/24 04:31:03;;;;;;;2.90;1.00;;;;;;;7.30;70.49;97121.13;234792;214;149678;-57
2023/11/24 04:36:07;;;;;;;1.50;0.80;;;;;;;7.28;70.32;97126.58;234506;214;138751;-56
2023/11/24 04:41:11;;;;;;;1.30;0.90;;;;;;;7.30;70.53;97113.92;234248;214;138389;-54
2023/11/24 04:46:14;;;;;;;1.50;0.70;;;;;;;7.29;70.13;97083.84;234428;214;151025;-54
2023/11/24 04:51:17;;;;;;;2.20;0.80;;;;;;;7.25;70.32;97087.67;234478;212;140185;-56
2023/11/24 04:56:21;;;;;;;1.40;1.00;;;;;;;7.22;70.41;97092.38;234625;212;138763;-55
2023/11/24 05:01:24;;;;;;;2.70;1.10;;;;;;;7.17;70.49;97086.94;233909;212;149185;-56
2023/11/24 05:06:32;;;;;;;1.40;0.80;;;;;;;7.19;70.52;97067.36;234536;215;138867;-56
2023/11/24 05:11:35;;;;;;;3.20;1.10;;;;;;;7.23;70.43;97062.81;234385;212;137133;-56
2023/11/24 05:16:38;;;;;;;49.40;33.10;;;;;;;7.30;70.28;97073.19;234522;215;149671;-54
2023/11/24 05:21:41;;;;;;;4.10;1.50;;;;;;;7.31;70.13;97063.56;234265;213;139739;-53
2023/11/24 05:26:45;;;;;;;12.50;9.00;;;;;;;7.25;69.84;97088.56;234625;212;140557;-55
2023/11/24 05:31:51;;;;;;;2.70;1.20;;;;;;;7.23;69.89;97076.75;234575;213;149222;-55
2023/11/24 05:36:55;;;;;;;3.30;1.20;;;;;;;7.25;69.78;97087.49;234552;211;139970;-55
2023/11/24 05:41:58;;;;;;;4.20;1.10;;;;;;;7.24;69.79;97081.06;234487;215;139586;-56
2023/11/24 05:47:04;;;;;;;2.40;1.20;;;;;;;7.25;69.56;97067.58;234408;213;151915;-54
2023/11/24 05:52:14;;;;;;;2.50;1.00;;;;;;;7.22;68.77;97090.98;234499;215;139345;-53
2023/11/24 05:57:17;;;;;;;24.60;18.10;;;;;;;7.16;67.90;97095.69;234376;215;137097;-53
2023/11/24 06:02:21;;;;;;;3.90;1.40;;;;;;;7.15;67.63;97098.96;234598;215;150464;-53
2023/11/24 06:07:24;;;;;;;2.50;1.20;;;;;;;7.14;67.38;97107.84;234399;215;139990;-50
2023/11/24 06:12:29;;;;;;;3.50;1.20;;;;;;;7.17;66.80;97100.34;234528;215;138246;-51
2023/11/24 06:17:32;;;;;;;2.20;1.10;;;;;;;7.17;65.99;97117.14;234353;215;149481;-52
2023/11/24 06:22:36;;;;;;;4.00;1.30;;;;;;;7.11;65.30;97104.86;234391;215;139518;-51
2023/11/24 06:27:39;;;;;;;4.50;1.10;;;;;;;7.06;64.66;97099.06;234282;215;137179;-53
2023/11/24 06:32:42;;;;;;;5.00;1.40;;;;;;;7.01;64.38;97112.52;234390;209;150425;-52
2023/11/24 06:37:45;;;;;;;7.10;1.90;;;;;;;6.97;64.04;97127.98;234012;213;139467;-50
2023/11/24 06:42:48;;;;;;;3.70;1.20;;;;;;;6.90;63.53;97146.69;234707;212;138036;-51
2023/11/24 06:47:52;;;;;;;137.80;101.30;;;;;;;6.81;63.29;97166.74;234395;207;148996;-52
2023/11/24 06:52:55;;;;;;;5.90;3.20;;;;;;;6.77;63.03;97175.21;234418;215;141895;-51
2023/11/24 06:57:58;;;;;;;4.80;1.90;;;;;;;6.68;62.95;97185.27;234396;211;137506;-52
2023/11/24 07:03:02;;;;;;;5.00;1.90;;;;;;;6.62;63.08;97191.70;234512;215;150500;-49
2023/11/24 07:08:05;;;;;;;6.20;1.80;;;;;;;6.62;63.28;97201.58;234497;211;139767;-50
2023/11/24 07:13:08;;;;;;;7.60;1.90;;;;;;;6.60;63.39;97198.40;234819;213;137659;-50
2023/11/24 07:18:13;;;;;;;6.90;1.80;;;;;;;6.58;63.62;97210.30;234707;215;150226;-51
2023/11/24 07:23:16;;;;;;;4.90;1.70;;;;;;;6.55;63.82;97216.02;234462;213;138593;-51
2023/11/24 07:28:19;;;;;;;7.30;2.30;;;;;;;6.46;64.11;97216.68;234348;215;137120;-47
2023/11/24 07:33:22;;;;;;;6.70;2.20;;;;;;;6.32;64.48;97215.59;234011;215;149639;-47
2023/11/24 07:38:25;;;;;;;6.90;2.40;;;;;;;6.32;64.77;97217.04;234381;215;139504;-49
2023/11/24 07:43:28;;;;;;;8.80;2.00;;;;;;;6.33;64.64;97216.77;234478;213;138439;-50
2023/11/24 07:48:33;;;;;;;8.30;2.10;;;;;;;6.35;64.06;97222.38;234772;213;149013;-49
2023/11/24 07:53:36;;;;;;;6.30;2.10;;;;;;;6.47;63.79;97210.99;234364;212;138928;-51
2023/11/24 07:58:40;;;;;;;7.90;1.80;;;;;;;6.50;63.91;97189.98;234534;215;136653;-50
2023/11/24 08:03:44;;;;;;;5.70;2.00;;;;;;;6.54;63.77;97192.09;234375;215;149631;-50
2023/11/24 08:08:47;;;;;;;9.70;1.90;;;;;;;6.60;63.41;97190.08;234461;212;138951;-50
2023/11/24 08:13:50;;;;;;;6.00;1.80;;;;;;;6.66;63.19;97190.65;234657;213;138617;-51
2023/11/24 08:18:53;;;;;;;6.30;2.20;;;;;;;6.67;63.18;97182.88;234581;215;149327;-49
2023/11/24 08:23:56;;;;;;;8.80;2.20;;;;;;;6.69;63.32;97191.73;234340;213;140773;-49
2023/11/24 08:28:59;;;;;;;5.10;2.10;;;;;;;6.73;62.97;97193.70;234427;213;140241;-48
2023/11/24 08:34:03;;;;;;;6.40;2.40;;;;;;;6.77;62.76;97189.48;234489;212;148498;-51
2023/11/24 08:39:12;;;;;;;9.50;2.40;;;;;;;6.85;62.20;97187.25;234473;214;139016;-49
2023/11/24 08:44:17;;;;;;;8.30;1.80;;;;;;;6.91;62.04;97183.18;234477;215;137628;-48
2023/11/24 08:49:21;;;;;;;10.50;2.40;;;;;;;6.98;61.95;97181.17;234417;215;150568;-50
2023/11/24 08:54:25;;;;;;;8.50;2.10;;;;;;;7.05;61.38;97175.14;234577;215;140585;-51
2023/11/24 08:59:28;;;;;;;10.20;2.40;;;;;;;7.13;60.95;97151.82;234475;207;136755;-48
2023/11/24 09:04:34;;;;;;;9.00;2.10;;;;;;;7.24;60.98;97131.69;234400;215;149565;-51
2023/11/24 09:09:38;;;;;;;11.50;2.10;;;;;;;7.32;59.72;97134.37;234264;214;139172;-55
2023/11/24 09:14:41;;;;;;;16.50;6.10;;;;;;;7.33;58.55;97126.91;234103;208;137804;-52
2023/11/24 09:19:45;;;;;;;8.90;2.40;;;;;;;7.33;58.05;97105.73;234497;207;149345;-54
2023/11/24 09:24:48;;;;;;;8.10;2.00;;;;;;;7.36;57.79;97095.30;234358;213;140142;-53
2023/11/24 09:29:51;;;;;;;9.40;2.00;;;;;;;7.45;57.03;97086.33;234083;213;137250;-54
2023/11/24 09:34:55;;;;;;;11.60;2.40;;;;;;;7.56;56.29;97081.32;234152;212;149168;-54
2023/11/24 09:39:58;;;;;;;7.20;2.30;;;;;;;7.67;57.11;97074.80;234232;213;139602;-54
2023/11/24 09:45:08;;;;;;;7.00;2.50;;;;;;;7.72;57.08;97064.50;234097;213;270809;-53
2023/11/24 09:50:12;;;;;;;8.80;2.20;;;;;;;7.80;57.41;97061.20;234181;213;149234;-52
2023/11/24 09:55:16;;;;;;;11.30;2.20;;;;;;;7.83;57.07;97064.44;234230;212;138689;-53
2023/11/24 10:00:20;;;;;;;7.20;2.10;;;;;;;7.69;56.86;97059.42;234095;215;136912;-53
2023/11/24 10:05:26;;;;;;;5.00;1.50;;;;;;;7.65;55.61;97057.33;234179;213;150028;-54
2023/11/24 10:10:29;;;;;;;8.40;1.80;;;;;;;7.56;55.33;97050.95;234083;214;139647;-53
2023/11/24 10:15:33;;;;;;;5.20;1.70;;;;;;;7.72;55.32;97051.30;234187;213;137745;-54
2023/11/24 10:20:38;;;;;;;9.10;2.00;;;;;;;7.74;54.62;97032.02;234158;214;149298;-54
2023/11/24 10:25:41;;;;;;;5.20;1.50;;;;;;;7.75;54.51;97021.89;234194;212;138727;-53
2023/11/24 10:30:44;;;;;;;8.60;1.60;;;;;;;7.89;54.40;97018.42;234221;209;136946;-53
2023/11/24 10:35:49;;;;;;;5.10;1.60;;;;;;;8.01;53.46;96999.06;234229;213;150272;-53
2023/11/24 10:40:54;;;;;;;5.30;1.60;;;;;;;8.02;53.20;96995.41;234109;213;139308;-53
2023/11/24 10:46:01;;;;;;;9.00;1.60;;;;;;;7.89;52.98;96994.20;234158;213;137917;-52
2023/11/24 10:51:18;;;;;;;7.70;2.30;;;;;;;7.77;53.65;96995.75;234106;214;149141;-52
2023/11/24 10:56:21;;;;;;;5.50;1.40;;;;;;;7.77;53.71;96999.64;234175;213;139389;-53
2023/11/24 11:01:27;;;;;;;290.60;172.80;;;;;;;7.69;52.87;96999.27;234105;214;137287;-52
2023/11/24 11:07:01;;;;;;;9.30;3.00;;;;;;;7.67;53.38;96991.17;234225;213;149081;-53
2023/11/24 11:12:19;;;;;;;9.10;2.20;;;;;;;7.76;53.43;96976.80;234036;214;138765;-53
2023/11/24 11:17:25;;;;;;;4.30;1.90;;;;;;;7.71;53.81;96973.52;233920;213;137527;-52
2023/11/24 11:22:29;;;;;;;4.10;1.60;;;;;;;7.72;53.35;96961.08;234156;213;149220;-53
2023/11/24 11:27:36;;;;;;;7.30;1.90;;;;;;;7.68;53.71;96949.20;234083;210;139378;-51
2023/11/24 11:32:42;;;;;;;7.70;2.10;;;;;;;7.74;53.68;96947.52;234032;214;137742;-52
2023/11/24 11:37:45;;;;;;;;;;;;;;;7.75;53.05;96942.64;234104;213;149918;-53
2023/11/24 11:42:53;;;;;;;5.70;1.80;;;;;;;7.70;52.93;96933.36;234100;210;139907;-53
2023/11/24 11:47:59;;;;;;;6.50;1.80;;;;;;;7.71;52.77;96934.48;234114;214;137819;-52
2023/11/24 11:53:03;;;;;;;7.00;1.50;;;;;;;7.70;52.53;96935.83;234079;213;149169;-52
2023/11/24 11:58:07;;;;;;;4.00;1.40;;;;;;;7.68;52.23;96941.24;234110;214;138714;-52
2023/11/24 12:03:12;;;;;;;5.40;1.60;;;;;;;7.69;52.29;96947.20;234055;209;137201;-50
2023/11/24 12:08:16;;;;;;;6.40;1.60;;;;;;;7.72;52.35;96934.08;234132;215;149667;-52
2023/11/24 12:13:24;;;;;;;4.20;1.50;;;;;;;7.72;52.05;96931.58;233984;209;140339;-53
2023/11/24 12:18:28;;;;;;;8.20;1.80;;;;;;;7.75;50.98;96926.68;234196;215;137539;-52
2023/11/24 12:23:31;;;;;;;10.70;1.60;;;;;;;7.74;50.28;96923.80;234074;213;149706;-53
2023/11/24 12:28:37;;;;;;;5.00;1.80;;;;;;;7.75;50.33;96925.17;234162;214;138773;-52
2023/11/24 12:33:47;;;;;;;5.90;1.80;;;;;;;7.89;50.40;96918.30;234162;215;136400;-53
2023/11/24 12:38:51;;;;;;;3.70;1.50;;;;;;;7.91;49.23;96926.11;234097;210;150268;-52
2023/11/24 12:43:59;;;;;;;9.60;5.50;;;;;;;7.80;47.86;96922.56;234038;209;138849;-53
2023/11/24 12:49:04;;;;;;;5.90;1.80;;;;;;;7.62;47.44;96904.34;234065;213;138492;-54
2023/11/24 12:54:08;;;;;;;6.40;1.70;;;;;;;7.53;48.37;96917.14;234054;214;149475;-51
2023/11/24 12:59:11;;;;;;;4.60;1.20;;;;;;;7.48;48.52;96913.70;234075;214;139146;-52
2023/11/24 13:04:14;;;;;;;3.00;1.20;;;;;;;7.40;49.16;96915.79;234321;215;138105;-54
2023/11/24 13:09:18;;;;;;;4.10;1.30;;;;;;;7.42;49.63;96917.03;234127;214;150282;-55
2023/11/24 13:14:22;;;;;;;5.50;1.50;;;;;;;7.46;49.68;96913.11;234054;214;138746;-54
2023/11/24 13:19:26;;;;;;;3.50;1.20;;;;;;;7.56;49.18;96902.95;234102;214;137685;-52
2023/11/24 13:24:31;;;;;;;2.80;0.90;;;;;;;7.51;48.79;96898.59;233981;214;150011;-53
2023/11/24 13:29:34;;;;;;;2.90;1.20;;;;;;;7.42;48.86;96903.40;234128;216;138829;-55
2023/11/24 13:34:41;;;;;;;3.90;1.10;;;;;;;7.40;49.12;96900.80;234186;214;137553;-55
2023/11/24 13:39:47;;;;;;;107.60;73.30;;;;;;;7.34;49.22;96894.70;234249;214;149480;-55
2023/11/24 13:44:51;;;;;;;5.50;2.10;;;;;;;7.28;49.42;96902.08;234063;210;140769;-53
2023/11/24 13:49:54;;;;;;;3.80;1.60;;;;;;;7.26;49.17;96908.11;234054;214;136696;-54
2023/11/24 13:54:57;;;;;;;7.90;1.80;;;;;;;7.20;49.52;96914.02;234128;215;149824;-55
2023/11/24 14:00:00;;;;;;;3.20;1.30;;;;;;;7.18;49.12;96920.05;234071;214;141056;-55
2023/11/24 14:05:08;;;;;;;4.90;1.40;;;;;;;7.15;49.12;96928.40;234057;214;137672;-54
2023/11/24 14:10:16;;;;;;;2.80;1.40;;;;;;;7.11;49.38;96934.14;234266;210;149135;-53
2023/11/24 14:15:23;;;;;;;7.90;1.50;;;;;;;7.00;49.56;96933.67;234053;209;138911;-54
2023/11/24 14:20:26;;;;;;;2.50;1.20;;;;;;;6.90;49.73;96939.92;234116;212;137108;-56
2023/11/24 14:25:30;;;;;;;6.00;1.50;;;;;;;6.78;50.14;96937.02;234120;214;149433;-56
2023/11/24 14:30:38;;;;;;;4.40;1.60;;;;;;;6.73;50.43;96937.23;234011;214;139386;-55
2023/11/24 14:35:41;;;;;;;7.20;1.80;;;;;;;6.73;50.68;96941.31;234099;213;137878;-59
2023/11/24 14:40:45;;;;;;;5.70;1.60;;;;;;;6.72;50.52;96946.86;234056;209;149556;-57
2023/11/24 14:45:48;;;;;;;5.40;1.80;;;;;;;6.73;50.56;96944.67;234112;214;138811;-58
2023/11/24 14:50:52;;;;;;;5.20;2.10;;;;;;;6.78;50.60;96946.18;234115;209;137247;-58
2023/11/24 14:55:55;;;;;;;6.50;1.90;;;;;;;6.74;51.13;96947.55;234098;209;151035;-58
2023/11/24 15:01:02;;;;;;;15.20;5.70;;;;;;;6.78;51.53;96939.55;234023;209;140426;-60
2023/11/24 15:06:06;;;;;;;5.50;2.10;;;;;;;6.77;52.05;96946.83;234133;214;137136;-60
2023/11/24 15:11:13;;;;;;;5.20;2.30;;;;;;;6.77;53.84;96950.02;234060;214;149961;-60
2023/11/24 15:16:17;;;;;;;5.70;2.20;;;;;;;6.70;54.53;96939.66;234282;215;139435;-57
2023/11/24 15:21:30;;;;;;;6.50;2.60;;;;;;;6.64;54.80;96936.23;234154;216;137517;-58
2023/11/24 15:26:36;;;;;;;6.30;2.50;;;;;;;6.62;55.18;96934.09;234073;215;150593;-58
2023/11/24 15:31:41;;;;;;;4.80;2.00;;;;;;;6.54;55.08;96937.37;234000;214;139312;-57
2023/11/24 15:36:45;;;;;;;5.40;2.20;;;;;;;6.50;54.98;96935.05;234178;214;136767;-59
2023/11/24 15:41:51;;;;;;;28.50;15.50;;;;;;;6.37;56.12;96960.20;234135;213;150447;-57
2023/11/24 15:46:55;;;;;;;7.80;3.90;;;;;;;6.09;59.47;96991.76;234207;215;138899;-56
2023/11/24 15:51:58;;;;;;;5.50;2.80;;;;;;;5.79;61.10;96990.55;234348;216;136958;-57
2023/11/24 15:57:03;;;;;;;8.40;4.90;;;;;;;5.47;62.80;96989.79;234199;208;149203;-56
2023/11/24 16:02:06;;;;;;;115.60;83.80;;;;;;;5.23;63.54;96975.16;234159;215;141060;-58
2023/11/24 16:07:09;;;;;;;12.80;8.40;;;;;;;5.25;64.93;96973.61;234178;215;137182;-58
2023/11/24 16:12:14;;;;;;;3.50;2.20;;;;;;;5.23;64.48;96969.20;234274;214;149255;-59
2023/11/24 16:17:18;;;;;;;4.40;1.80;;;;;;;5.09;64.83;96963.55;234266;215;139045;-59
2023/11/24 16:22:21;;;;;;;4.60;1.90;;;;;;;5.01;64.88;96973.98;234383;215;136667;-61
2023/11/24 16:27:24;;;;;;;3.50;2.00;;;;;;;5.01;65.24;96980.67;234301;215;150597;-61
2023/11/24 16:32:27;;;;;;;5.60;2.10;;;;;;;5.01;65.04;96993.02;234192;215;139576;-61
2023/11/24 16:37:31;;;;;;;4.20;1.90;;;;;;;4.92;65.00;96989.56;234176;215;137725;-61
2023/11/24 16:42:37;;;;;;;3.80;1.50;;;;;;;4.83;65.22;96979.69;234251;215;149593;-60
2023/11/24 16:47:42;;;;;;;5.90;1.80;;;;;;;4.73;65.47;96987.05;234261;215;139464;-61
2023/11/24 16:52:48;;;;;;;4.20;1.70;;;;;;;4.67;65.72;96996.47;234220;215;136579;-61
2023/11/24 16:57:51;;;;;;;6.30;2.00;;;;;;;4.63;66.07;96986.52;234412;215;148995;-62
2023/11/24 17:02:54;;;;;;;2.60;1.70;;;;;;;4.56;66.37;96988.48;234202;215;138680;-64
2023/11/24 17:08:03;;;;;;;6.60;2.20;;;;;;;4.50;66.57;96981.71;234223;212;136575;-61
2023/11/24 17:13:06;;;;;;;6.10;2.30;;;;;;;4.40;67.06;96970.81;234236;215;150601;-62
2023/11/24 17:23:19;;;;;;;7.60;3.40;;;;;;;4.34;67.55;96956.70;234033;215;138861;-58
2023/11/24 17:28:23;;;;;;;7.90;3.80;;;;;;;4.37;67.43;96956.24;234395;213;150203;-58
2023/11/24 17:33:26;;;;;;;8.50;4.20;;;;;;;4.42;67.11;96955.90;234152;213;138997;-58
2023/11/24 17:38:29;;;;;;;10.00;4.30;;;;;;;4.44;66.89;96959.14;234239;216;137729;-59
2023/11/24 17:43:34;;;;;;;8.80;4.40;;;;;;;4.37;67.01;96967.33;234228;214;150388;-59
2023/11/24 17:48:37;;;;;;;11.20;5.70;;;;;;;4.37;67.02;96973.95;234020;212;140539;-57
2023/11/24 17:53:45;;;;;;;;;;;;;;;4.35;67.10;96971.69;234236;214;137775;-59
2023/11/24 17:58:48;;;;;;;8.90;4.50;;;;;;;4.29;67.43;96975.29;234336;213;149709;-60
2023/11/24 18:03:51;;;;;;;17.00;7.20;;;;;;;4.23;67.62;96975.83;234272;215;139095;-58
2023/11/24 18:08:55;;;;;;;12.40;6.80;;;;;;;4.23;67.64;96971.79;233790;209;137959;-61
2023/11/24 18:14:05;;;;;;;10.30;6.40;;;;;;;4.22;67.81;96975.77;234242;214;149610;-59
2023/11/24 18:19:09;;;;;;;13.60;6.50;;;;;;;4.20;67.82;96976.78;234116;214;138931;-60
2023/11/24 18:24:12;;;;;;;13.60;6.70;;;;;;;4.22;67.68;96982.06;234205;214;137039;-58
2023/11/24 18:29:19;;;;;;;12.10;5.70;;;;;;;4.27;67.82;96987.68;234236;210;150076;-60
2023/11/24 18:34:27;;;;;;;15.70;5.90;;;;;;;4.33;67.54;96992.34;234255;214;139800;-61
2023/11/24 18:39:31;;;;;;;9.70;5.70;;;;;;;4.41;67.41;96997.03;234269;214;141023;-61
2023/11/24 18:44:35;;;;;;;13.00;6.10;;;;;;;4.49;67.23;96995.08;234183;216;149641;-59
2023/11/24 18:49:38;;;;;;;15.50;5.50;;;;;;;4.57;66.82;96992.75;234256;213;140419;-58
2023/11/24 18:54:41;;;;;;;11.10;6.00;;;;;;;4.59;66.99;96986.31;234207;214;137741;-59
2023/11/24 18:59:47;;;;;;;7.20;4.10;;;;;;;4.58;66.87;96994.99;234291;213;150060;-58
2023/11/24 19:04:50;;;;;;;14.90;6.10;;;;;;;4.59;66.87;96999.86;234227;214;138999;-58
2023/11/24 19:09:56;;;;;;;15.60;6.50;;;;;;;4.57;66.94;96998.36;234341;216;138950;-58
2023/11/24 19:14:59;;;;;;;16.30;6.70;;;;;;;4.55;67.21;97010.14;234198;216;149821;-58
2023/11/24 19:20:03;;;;;;;13.90;7.20;;;;;;;4.59;67.31;97010.02;234184;208;138745;-58
2023/11/24 19:25:08;;;;;;;16.60;7.60;;;;;;;4.61;67.17;97009.21;234177;214;137656;-58
2023/11/24 19:30:12;;;;;;;14.50;7.20;;;;;;;4.64;67.46;97010.58;234227;214;150095;-59
2023/11/24 19:35:15;;;;;;;15.30;7.80;;;;;;;4.67;67.53;97004.92;234094;213;140115;-58
2023/11/24 19:40:18;;;;;;;15.40;6.80;;;;;;;4.72;67.62;97005.94;234346;215;136992;-57
2023/11/24 19:45:21;;;;;;;13.70;7.10;;;;;;;4.73;67.61;97007.41;233900;214;148557;-57
2023/11/24 19:50:25;;;;;;;11.10;6.00;;;;;;;4.75;67.62;96997.84;234012;214;140629;-58
2023/11/24 19:55:28;;;;;;;12.00;6.50;;;;;;;4.83;67.43;96991.30;234152;209;137826;-58
2023/11/24 20:00:31;;;;;;;11.80;6.80;;;;;;;4.90;67.21;96980.92;234177;214;149937;-58
2023/11/24 20:05:35;;;;;;;14.60;6.20;;;;;;;4.90;66.98;96984.44;234190;209;138873;-58
2023/11/24 20:10:38;;;;;;;13.60;6.40;;;;;;;4.87;67.10;96986.56;234324;213;137583;-58
2023/11/24 20:15:43;;;;;;;13.50;6.80;;;;;;;4.86;67.01;96982.25;234170;214;149830;-58
2023/11/24 20:20:47;;;;;;;13.80;7.40;;;;;;;4.86;66.92;96976.48;234160;216;138897;-58
2023/11/24 20:25:51;;;;;;;14.50;7.30;;;;;;;4.84;66.55;96977.35;234137;214;137493;-58
2023/11/24 20:30:55;;;;;;;16.80;7.00;;;;;;;4.83;66.09;96974.77;234160;215;150286;-58
2023/11/24 20:35:59;;;;;;;17.10;7.30;;;;;;;4.82;65.30;96971.13;234133;213;138873;-59
2023/11/24 20:41:02;;;;;;;17.80;7.70;;;;;;;4.81;64.88;96966.99;234191;214;139632;-59
2023/11/24 20:46:06;;;;;;;18.60;8.80;;;;;;;4.86;64.56;96964.36;234268;216;150477;-59
2023/11/24 20:51:09;;;;;;;17.50;8.60;;;;;;;4.88;64.29;96960.72;234143;216;139559;-59
2023/11/24 20:56:13;;;;;;;20.30;8.70;;;;;;;4.90;64.33;96962.82;234197;214;138483;-58
2023/11/24 21:01:17;;;;;;;20.60;9.60;;;;;;;4.92;64.34;96968.51;234168;214;150222;-58
2023/11/24 21:06:20;;;;;;;23.60;9.60;;;;;;;4.87;64.19;96967.98;234189;216;139249;-60
2023/11/24 21:11:23;;;;;;;21.40;9.00;;;;;;;4.89;64.27;96969.57;234217;216;137612;-59
2023/11/24 21:16:27;;;;;;;18.40;8.80;;;;;;;4.88;64.28;96968.10;234351;214;149488;-60
2023/11/24 21:21:30;;;;;;;20.70;9.20;;;;;;;4.88;64.29;96962.63;234155;215;138867;-59
2023/11/24 21:26:33;;;;;;;16.80;8.30;;;;;;;4.90;64.43;96963.04;234169;209;137854;-60
2023/11/24 21:31:37;;;;;;;17.50;8.20;;;;;;;4.93;64.34;96959.63;234241;214;149449;-60
2023/11/24 21:36:41;;;;;;;16.00;7.80;;;;;;;4.95;64.26;96954.38;234201;214;139025;-62
2023/11/24 21:41:45;;;;;;;18.30;8.30;;;;;;;4.91;64.06;96952.89;234270;214;137657;-62
2023/11/24 21:46:48;;;;;;;12.50;7.10;;;;;;;4.92;64.14;96953.03;234185;216;149162;-61
2023/11/24 21:51:51;;;;;;;14.80;6.60;;;;;;;4.93;63.93;96954.16;234266;214;138893;-60
2023/11/24 21:56:56;;;;;;;14.20;7.10;;;;;;;4.96;63.70;96953.05;234221;214;136767;-62
2023/11/24 22:01:59;;;;;;;13.80;6.30;;;;;;;4.96;63.65;96948.14;234164;213;149182;-64
2023/11/24 22:07:03;;;;;;;14.50;6.30;;;;;;;4.96;63.41;96947.58;234158;216;139491;-62
2023/11/24 22:12:06;;;;;;;11.20;5.80;;;;;;;4.91;63.44;96951.51;234154;213;153117;-62
2023/11/24 22:17:09;;;;;;;11.50;5.60;;;;;;;4.85;63.44;96949.13;234217;214;149420;-60
2023/11/24 22:22:12;;;;;;;10.60;5.40;;;;;;;4.81;63.48;96950.34;234279;216;139341;-61
2023/11/24 22:27:17;;;;;;;11.70;5.40;;;;;;;4.76;63.44;96963.65;234255;212;136845;-63
2023/11/24 22:32:20;;;;;;;10.50;5.30;;;;;;;4.76;63.38;96969.15;234235;214;149094;-60
2023/11/24 22:37:24;;;;;;;10.90;5.10;;;;;;;4.74;63.45;96971.91;234187;214;140013;-60
2023/11/24 22:42:28;;;;;;;10.30;5.60;;;;;;;4.68;63.74;96976.01;234249;214;137748;-60
2023/11/24 22:47:32;;;;;;;11.00;5.70;;;;;;;4.58;64.45;96979.18;234110;216;150796;-60
2023/11/24 22:52:36;;;;;;;15.60;6.00;;;;;;;4.47;65.36;96976.31;234320;214;140032;-61
2023/11/24 22:57:40;;;;;;;10.90;5.60;;;;;;;4.37;66.17;96975.60;234184;213;136757;-60
2023/11/24 23:02:43;;;;;;;10.20;5.70;;;;;;;4.28;66.95;96977.63;234231;213;149808;-60
2023/11/24 23:07:47;;;;;;;12.60;5.20;;;;;;;4.30;67.40;96978.69;234128;214;139279;-61
2023/11/24 23:12:50;;;;;;;13.60;5.90;;;;;;;4.36;67.68;96974.09;234233;214;139055;-62
2023/11/24 23:17:54;;;;;;;13.60;5.80;;;;;;;4.45;67.65;96978.88;234165;214;149485;-59
2023/11/24 23:22:57;;;;;;;11.00;5.20;;;;;;;4.47;67.58;96973.96;234157;209;139222;-61
2023/11/24 23:28:01;;;;;;;9.60;5.40;;;;;;;4.47;67.38;96962.54;234313;214;138009;-61
2023/11/24 23:33:05;;;;;;;10.80;5.70;;;;;;;4.42;67.44;96956.80;234197;215;149970;-62
2023/11/24 23:38:20;;;;;;;11.00;5.30;;;;;;;4.30;67.71;96953.58;234221;214;138959;-61
2023/11/24 23:43:23;;;;;;;10.80;5.00;;;;;;;4.21;67.91;96959.47;234231;216;138498;-62
2023/11/24 23:48:27;;;;;;;10.30;5.30;;;;;;;4.16;68.26;96959.31;234198;216;149105;-61
2023/11/24 23:53:30;;;;;;;8.30;4.70;;;;;;;4.16;68.48;96956.55;234135;216;139163;-62